Terminal Aerodrome Forecast
Issued by NWS Wilmington, NC

Home | Current Version | Previous Version | Text Only | Print | Product List | Glossary On
Versions: 1 2 3 4 5 6 7 8 9 10 11 12 13 14 15 16 17 18 19
000
FTUS42 KILM 202334
TAFLBT
TAF
KLBT 202334Z 2100/2124 22008KT P6SM SCT030 BKN150
     FM210400 23007KT P6SM BKN100
     FM210700 26006KT P6SM FEW060 SCT250
     FM211200 31007KT P6SM FEW040
     FM211800 28006KT P6SM SKC=

USA.gov is the U.S. government's official web portal to all federal, state and local government web resources and services.